This is the latest recevied weather packets stored in our database for station/object W7JFO-3. If no packets are shown the sender has not sent any weather packets the latest 10 day(s).
| Time | Temp. | Humidity | Pressure | Rain* | Wind** | Luminosity | Snow |
|---|---|---|---|---|---|---|---|
| 1777131128 | 0° C | 79% | 1015.4 hPa | 0 mm | - | 399 W/m² | - |
| 1777130228 | 0° C | 81% | 1015.4 hPa | 0 mm | - | 341 W/m² | - |
| 1777129328 | -0.56° C | 82% | 1015.5 hPa | 0 mm | - | 272 W/m² | - |
| 1777128428 | 0.56° C | 77% | 1015.9 hPa | 0 mm | - | 297 W/m² | - |
| 1777127528 | 0° C | 76% | 1015.9 hPa | 0 mm | - | 299 W/m² | - |
| 1777126628 | 0° C | 77% | 1015.8 hPa | 0 mm | - | 281 W/m² | - |
| 1777125728 | -0.56° C | 78% | 1015.8 hPa | 0 mm | - | 234 W/m² | - |
| 1777124828 | -1.11° C | 78% | 1015.7 hPa | 0 mm | - | 193 W/m² | - |
| 1777123928 | -1.67° C | 81% | 1016 hPa | 0 mm | - | 132 W/m² | - |
| 1777123028 | -2.22° C | 77% | 1015.7 hPa | 0 mm | - | 83 W/m² | - |
| 1777122128 | -2.78° C | 80% | 1015.6 hPa | 0 mm | - | 40 W/m² | - |
| 1777121228 | -2.78° C | 83% | 1015.7 hPa | 0 mm | - | 19 W/m² | - |
| 1777120328 | -2.78° C | 80% | 1015.9 hPa | 0 mm | - | 0 W/m² | - |
| 1777119428 | -2.78° C | 80% | 1015.7 hPa | 0 mm | - | 0 W/m² | - |
| 1777118528 | -3.33° C | 77% | 1015.9 hPa | 0 mm | - | 0 W/m² | - |
| 1777117628 | -2.78° C | 79% | 1015.9 hPa | 0 mm | - | 0 W/m² | - |
| 1777116728 | -2.22° C | 79% | 1016.1 hPa | 0 mm | - | 0 W/m² | - |
| 1777115828 | -2.78° C | 75% | 1015.8 hPa | 0 mm | - | 0 W/m² | - |
| 1777114928 | -2.78° C | 78% | 1015.8 hPa | 0 mm | - | 0 W/m² | - |
| 1777114028 | -2.78° C | 78% | 1015.8 hPa | 0 mm | - | 0 W/m² | - |
| 1777113128 | -2.22° C | 78% | 1016.2 hPa | 0 mm | - | 0 W/m² | - |
| 1777112228 | -2.22° C | 76% | 1015.9 hPa | 0 mm | - | 0 W/m² | - |
| 1777111328 | -2.22° C | 76% | 1016.1 hPa | 0 mm | - | 0 W/m² | - |
| 1777110428 | -1.67° C | 77% | 1016.3 hPa | 0 mm | - | 0 W/m² | - |
| 1777109528 | -1.67° C | 76% | 1016.5 hPa | 0 mm | - | 0 W/m² | - |
* Rain latest hour (hover to see other rain measurements)
** Current wind speed in m/s (hover to see current wind gust speed)